Time;durP1;ratioP1;P1;durP2;ratioP2;P2;SDS_P1;SDS_P2;PMS_P1;PMS_P2;Temp;Humidity;BMP_temperature;BMP_pressure;BME280_temperature;BME280_humidity;BME280_pressure;Samples;Min_cycle;Max_cycle;Signal;HPM_P1;HPM_P2
2023/08/15 00:00:58;;;;;;;12.37;10.37;;;23.60;99.90;;;;;;5040064;28;20450;-79
2023/08/15 00:03:46;;;;;;;10.40;9.57;;;23.70;99.90;;;;;;5039991;28;20469;-80
2023/08/15 00:06:24;;;;;;;10.93;10.10;;;23.70;99.90;;;;;;5038670;28;20489;-80
2023/08/15 00:08:58;;;;;;;11.90;10.90;;;23.60;99.90;;;;;;5038718;28;20465;-78
2023/08/15 00:11:37;;;;;;;10.73;9.63;;;23.60;99.90;;;;;;5038331;28;20484;-78
2023/08/15 00:14:16;;;;;;;11.43;10.53;;;23.60;99.90;;;;;;5038555;28;20454;-79
2023/08/15 00:16:59;;;;;;;10.20;9.47;;;23.50;99.90;;;;;;5039305;28;20501;-79
2023/08/15 00:19:30;;;;;;;10.33;9.50;;;23.50;99.90;;;;;;5038989;28;20470;-77
2023/08/15 00:22:10;;;;;;;9.93;9.13;;;23.50;99.90;;;;;;5039006;28;20951;-78
2023/08/15 00:24:55;;;;;;;10.10;9.30;;;23.50;99.90;;;;;;5038861;28;20457;-79
2023/08/15 00:27:54;;;;;;;10.10;9.20;;;23.50;99.90;;;;;;5039664;28;20489;-79
2023/08/15 00:30:46;;;;;;;10.50;9.53;;;23.50;99.90;;;;;;5029860;28;20528;-79
2023/08/15 00:33:33;;;;;;;9.63;8.83;;;23.50;99.90;;;;;;5038817;28;20435;-79
2023/08/15 00:36:05;;;;;;;9.57;8.97;;;23.50;99.90;;;;;;5038241;28;20459;-79
2023/08/15 00:39:02;;;;;;;9.67;8.93;;;23.50;99.90;;;;;;5041213;28;20478;-79
2023/08/15 00:42:09;;;;;;;10.23;9.20;;;23.40;99.90;;;;;;5041337;28;20451;-80
2023/08/15 00:48:39;;;;;;;10.50;9.60;;;23.30;99.90;;;;;;4912750;29;20468;-78
2023/08/15 00:51:57;;;;;;;9.70;8.80;;;23.30;99.90;;;;;;4919257;29;20636;-80
2023/08/15 01:02:02;;;;;;;10.30;9.53;;;23.10;99.90;;;;;;4885806;28;20445;-79
2023/08/15 01:05:04;;;;;;;10.23;9.50;;;23.10;99.90;;;;;;5043576;28;21056;-78
2023/08/15 01:08:04;;;;;;;10.83;10.00;;;23.10;99.90;;;;;;5044617;28;20474;-80
2023/08/15 01:11:08;;;;;;;10.47;9.57;;;23.10;99.90;;;;;;5024802;28;20454;-78
2023/08/15 01:14:34;;;;;;;;;;;;;;;;;;;;;
2023/08/15 01:17:33;;;;;;;10.83;9.83;;;23.00;99.90;;;;;;5022940;28;20541;-80
2023/08/15 01:20:11;;;;;;;11.63;10.67;;;22.90;99.90;;;;;;5029927;28;20533;-78
2023/08/15 01:23:10;;;;;;;12.17;11.27;;;22.90;99.90;;;;;;5036926;28;20469;-79
2023/08/15 01:26:09;;;;;;;13.50;12.40;;;22.80;99.90;;;;;;5038004;28;20502;-77
2023/08/15 01:28:51;;;;;;;11.43;10.53;;;22.70;99.90;;;;;;5037086;28;20488;-78
2023/08/15 01:32:01;;;;;;;11.43;10.33;;;22.70;99.90;;;;;;5040325;28;20429;-77
2023/08/15 01:35:08;;;;;;;12.00;11.00;;;22.70;99.90;;;;;;5038547;28;20446;-78
2023/08/15 01:38:18;;;;;;;12.03;11.00;;;22.70;99.90;;;;;;5038666;28;20469;-79
2023/08/15 01:41:05;;;;;;;12.80;11.60;;;22.70;99.90;;;;;;4957001;29;20441;-79
2023/08/15 01:46:46;;;;;;;11.60;10.70;;;22.60;99.90;;;;;;4964114;28;20494;-78
2023/08/15 01:49:34;;;;;;;12.13;11.13;;;22.60;99.90;;;;;;4961388;29;20450;-77
2023/08/15 01:52:35;;;;;;;10.67;9.87;;;22.50;99.90;;;;;;4962175;29;20450;-77
2023/08/15 01:55:40;;;;;;;11.13;10.30;;;22.60;99.90;;;;;;4995608;28;20454;-76
2023/08/15 01:58:33;;;;;;;11.50;10.60;;;22.60;99.90;;;;;;5044034;28;20918;-80
2023/08/15 02:01:21;;;;;;;12.00;11.00;;;22.50;99.90;;;;;;5041577;28;20798;-79
2023/08/15 02:04:17;;;;;;;11.43;10.60;;;22.60;99.90;;;;;;5046200;28;20438;-77
2023/08/15 02:07:15;;;;;;;;;;;;;;;;;;;;;
2023/08/15 02:09:48;;;;;;;11.53;10.53;;;22.50;99.90;;;;;;5051303;28;20504;-78
2023/08/15 02:12:24;;;;;;;11.60;10.50;;;22.40;99.90;;;;;;5051325;28;20458;-78
2023/08/15 02:14:53;;;;;;;10.87;10.07;;;22.30;99.90;;;;;;5047685;28;20466;-79
2023/08/15 02:17:34;;;;;;;10.60;9.50;;;22.30;99.90;;;;;;5047813;28;20935;-77
2023/08/15 02:20:08;;;;;;;11.20;10.40;;;22.30;99.90;;;;;;5049084;28;20438;-78
2023/08/15 02:22:43;;;;;;;11.20;10.20;;;22.30;99.90;;;;;;5049569;28;20438;-77
2023/08/15 02:25:17;;;;;;;11.37;10.50;;;22.30;99.90;;;;;;5049082;28;20442;-78
2023/08/15 02:27:55;;;;;;;10.63;9.83;;;22.40;99.90;;;;;;5054019;28;20537;-78
2023/08/15 02:31:01;;;;;;;11.10;10.20;;;22.20;99.90;;;;;;5054554;28;20419;-76
2023/08/15 02:33:39;;;;;;;11.17;10.27;;;22.20;99.90;;;;;;5054054;28;20473;-77
2023/08/15 02:36:24;;;;;;;10.77;9.97;;;22.20;99.90;;;;;;5053297;28;20486;-80
2023/08/15 02:39:18;;;;;;;;;;;;;;;;;;;;;
2023/08/15 02:41:59;;;;;;;11.53;10.40;;;21.80;99.90;;;;;;5032234;28;20494;-77
2023/08/15 02:44:46;;;;;;;10.07;9.37;;;22.10;99.90;;;;;;5047669;28;20494;-77
2023/08/15 02:47:20;;;;;;;12.63;11.60;;;22.10;99.90;;;;;;5039062;28;20508;-79
2023/08/15 02:50:07;;;;;;;10.90;10.10;;;22.10;99.90;;;;;;5046706;28;20454;-79
2023/08/15 02:52:40;;;;;;;11.50;10.50;;;22.10;99.90;;;;;;5047866;28;20453;-78
2023/08/15 02:55:15;;;;;;;12.63;11.37;;;22.00;99.90;;;;;;5046321;28;20457;-81
2023/08/15 02:57:54;;;;;;;11.70;10.60;;;22.00;99.90;;;;;;5047194;28;20529;-78
2023/08/15 03:01:07;;;;;;;12.37;11.20;;;22.00;99.90;;;;;;5047403;28;20439;-78
2023/08/15 03:13:34;;;;;;;11.93;11.03;;;21.90;99.90;;;;;;4950187;29;20453;-79
2023/08/15 03:19:37;;;;;;;11.87;11.07;;;21.80;99.90;;;;;;5012549;28;20477;-80
2023/08/15 03:25:43;;;;;;;12.43;11.00;;;21.80;99.90;;;;;;4978979;28;21008;-80
2023/08/15 03:28:31;;;;;;;12.00;10.77;;;21.80;99.90;;;;;;4997076;28;20553;-79
2023/08/15 03:37:42;;;;;;;11.80;10.80;;;21.70;99.90;;;;;;4989885;28;20477;-77
2023/08/15 03:40:31;;;;;;;12.10;11.10;;;21.70;99.90;;;;;;5040210;28;20443;-79
2023/08/15 03:43:11;;;;;;;11.50;10.60;;;21.70;99.90;;;;;;5040426;28;20438;-77
2023/08/15 03:48:43;;;;;;;11.30;10.40;;;21.60;99.90;;;;;;5004057;28;20454;-80
2023/08/15 03:51:28;;;;;;;11.93;11.00;;;21.60;99.90;;;;;;5039872;28;20450;-78
2023/08/15 03:56:46;;;;;;;13.10;12.20;;;21.60;99.90;;;;;;5037469;28;20489;-79
2023/08/15 04:02:31;;;;;;;12.40;11.40;;;21.50;99.90;;;;;;5029004;28;20461;-78
2023/08/15 04:08:34;;;;;;;12.50;11.50;;;21.50;99.90;;;;;;5069827;27;20864;-79
2023/08/15 04:11:31;;;;;;;;;;;;;;;;;;;;;
2023/08/15 04:14:04;;;;;;;13.10;12.10;;;21.40;99.90;;;;;;5054608;28;20771;-78
2023/08/15 04:16:59;;;;;;;11.30;10.50;;;21.00;99.90;;;;;;5042385;28;20466;-78
2023/08/15 04:19:32;;;;;;;11.60;10.60;;;21.40;99.90;;;;;;5034438;28;20469;-79
2023/08/15 04:22:03;;;;;;;12.07;10.97;;;21.40;99.90;;;;;;5036044;28;20446;-78
2023/08/15 04:25:19;;;;;;;11.80;10.80;;;21.40;99.90;;;;;;5039040;28;20505;-79
2023/08/15 04:30:55;;;;;;;11.73;10.93;;;21.30;99.90;;;;;;5016584;28;20479;-78
2023/08/15 04:33:39;;;;;;;12.57;11.57;;;21.30;99.90;;;;;;5038588;28;20459;-77
2023/08/15 04:36:12;;;;;;;12.80;11.63;;;21.30;99.90;;;;;;5040705;28;20467;-79
2023/08/15 04:39:09;;;;;;;12.70;11.53;;;21.20;99.90;;;;;;5043523;28;20517;-78
2023/08/15 04:41:58;;;;;;;12.50;11.40;;;21.20;99.90;;;;;;5043995;28;20468;-79
2023/08/15 05:01:47;;;;;;;14.47;13.13;;;21.30;99.90;;;;;;4957568;28;20448;-79
2023/08/15 05:08:05;;;;;;;12.50;11.47;;;21.40;99.90;;;;;;4930593;28;20484;-79
2023/08/15 05:13:58;;;;;;;13.60;12.50;;;21.40;99.90;;;;;;5022991;28;20412;-79
2023/08/15 05:17:11;;;;;;;12.83;11.80;;;21.50;99.90;;;;;;5020717;28;20463;-79
2023/08/15 05:20:15;;;;;;;13.37;11.97;;;21.60;99.90;;;;;;4930129;29;20474;-79
2023/08/15 05:23:29;;;;;;;;;;;;;;;;;;;;;
2023/08/15 05:26:29;;;;;;;13.43;12.23;;;21.70;99.90;;;;;;5023165;28;20535;-79
2023/08/15 05:29:40;;;;;;;13.53;12.30;;;21.80;99.90;;;;;;5028854;28;20443;-78
2023/08/15 05:32:25;;;;;;;13.07;11.93;;;22.00;99.90;;;;;;5024727;28;20451;-81
2023/08/15 05:35:05;;;;;;;13.43;12.23;;;22.00;99.90;;;;;;5023314;28;20535;-79
2023/08/15 05:38:04;;;;;;;11.77;10.77;;;22.10;99.90;;;;;;5023707;28;20629;-79
2023/08/15 05:41:04;;;;;;;13.07;12.10;;;22.20;99.90;;;;;;5026285;28;20455;-77
2023/08/15 05:43:59;;;;;;;12.10;11.20;;;22.30;99.90;;;;;;5023771;28;20507;-78
2023/08/15 05:49:40;;;;;;;12.30;11.10;;;22.60;99.90;;;;;;5021036;28;20530;-79
2023/08/15 05:52:34;;;;;;;13.03;11.27;;;22.70;99.90;;;;;;5020286;28;20446;-80
2023/08/15 05:55:51;;;;;;;11.03;10.03;;;22.80;99.90;;;;;;5021978;28;20439;-79
2023/08/15 05:59:18;;;;;;;11.20;10.40;;;22.80;99.90;;;;;;5001269;28;20473;-78
2023/08/15 06:08:40;;;;;;;11.80;10.70;;;23.10;99.90;;;;;;5017357;28;20514;-78
2023/08/15 06:11:41;;;;;;;11.80;10.80;;;23.00;99.90;;;;;;5026429;28;20575;-78
2023/08/15 06:17:42;;;;;;;12.13;11.03;;;23.10;99.90;;;;;;5025211;28;20495;-80
2023/08/15 06:27:13;;;;;;;12.43;11.17;;;23.20;99.90;;;;;;5026419;28;20543;-79
2023/08/15 06:36:47;;;;;;;12.50;11.20;;;23.50;99.90;;;;;;5022579;28;20467;-79
2023/08/15 06:42:29;;;;;;;11.90;10.80;;;23.60;99.90;;;;;;5026055;28;20439;-79
2023/08/15 06:48:05;;;;;;;11.87;10.70;;;23.60;99.90;;;;;;5021791;28;20475;-77
2023/08/15 06:51:06;;;;;;;11.60;10.67;;;23.70;99.90;;;;;;5022940;28;20515;-79
2023/08/15 06:53:38;;;;;;;11.40;10.33;;;23.80;99.90;;;;;;5022396;28;20486;-77
2023/08/15 06:56:13;;;;;;;13.10;12.00;;;23.80;99.90;;;;;;5023674;28;20479;-80
2023/08/15 06:58:54;;;;;;;11.30;10.30;;;23.80;99.90;;;;;;5024541;28;20490;-79
2023/08/15 07:01:32;;;;;;;12.40;11.23;;;23.90;99.90;;;;;;5021707;28;20970;-80
2023/08/15 07:04:08;;;;;;;13.43;10.73;;;24.10;99.90;;;;;;5022947;28;20490;-78
2023/08/15 07:09:30;;;;;;;11.13;10.13;;;24.40;99.90;;;;;;5023950;28;20444;-78
2023/08/15 07:12:02;;;;;;;10.83;9.77;;;24.60;99.90;;;;;;5016162;28;20459;-80
2023/08/15 07:14:45;;;;;;;10.33;9.10;;;24.70;99.90;;;;;;5016026;28;20451;-78
2023/08/15 07:17:37;;;;;;;10.23;9.33;;;24.80;99.90;;;;;;5014362;28;20463;-78
2023/08/15 07:20:14;;;;;;;11.10;9.93;;;24.90;99.90;;;;;;5019944;28;20497;-80
2023/08/15 07:23:10;;;;;;;;;;;;;;;;;;;;;
2023/08/15 07:25:47;;;;;;;9.33;8.53;;;25.30;99.90;;;;;;5017443;28;20466;-82
2023/08/15 07:28:33;;;;;;;9.27;8.37;;;25.40;99.90;;;;;;5011988;28;20532;-79
2023/08/15 07:31:10;;;;;;;8.83;8.07;;;25.60;99.90;;;;;;5005104;28;20447;-79
2023/08/15 07:33:55;;;;;;;10.30;8.13;;;25.80;99.90;;;;;;5018860;28;20448;-79
2023/08/15 07:39:32;;;;;;;8.33;7.43;;;25.80;99.90;;;;;;5006882;28;20443;-79
2023/08/15 07:42:25;;;;;;;8.53;7.73;;;25.90;99.90;;;;;;5020084;28;20509;-78
2023/08/15 07:45:04;;;;;;;8.17;7.53;;;26.10;99.90;;;;;;5005378;28;20532;-78
2023/08/15 07:47:58;;;;;;;8.10;7.50;;;26.00;99.90;;;;;;5019796;28;20478;-78
2023/08/15 07:50:42;;;;;;;8.57;7.77;;;26.00;99.90;;;;;;4999563;28;20476;-80
2023/08/15 07:53:24;;;;;;;8.00;7.40;;;26.30;99.90;;;;;;5005962;28;20463;-80
2023/08/15 07:56:17;;;;;;;8.37;7.57;;;26.30;99.90;;;;;;4997291;28;20460;-78
2023/08/15 07:59:13;;;;;;;;;;;;;;;;;;;;;
2023/08/15 08:02:02;;;;;;;;;;;;;;;;;;;;;
2023/08/15 08:07:36;;;;;;;8.90;6.80;;;27.20;99.90;;;;;;5017154;28;20474;-81
2023/08/15 08:13:21;;;;;;;7.30;6.60;;;27.30;99.90;;;;;;4995005;28;20443;-80
2023/08/15 08:16:05;;;;;;;7.63;6.90;;;27.20;99.90;;;;;;5019743;28;20563;-78
2023/08/15 08:18:56;;;;;;;7.37;6.67;;;27.40;99.90;;;;;;5024029;28;20519;-80
2023/08/15 08:21:28;;;;;;;7.30;6.70;;;27.40;99.90;;;;;;5023889;28;20447;-79
2023/08/15 08:24:11;;;;;;;6.80;6.20;;;27.50;99.90;;;;;;5025853;28;20447;-79
2023/08/15 08:27:03;;;;;;;7.80;7.07;;;27.50;99.90;;;;;;5024370;28;20555;-79
2023/08/15 08:30:04;;;;;;;7.40;6.80;;;27.50;99.90;;;;;;5024225;28;20627;-78
2023/08/15 08:32:45;;;;;;;7.17;6.60;;;27.70;99.90;;;;;;5023518;28;20570;-79
2023/08/15 08:35:22;;;;;;;8.07;7.37;;;27.70;99.90;;;;;;5005565;28;20548;-78
2023/08/15 08:37:58;;;;;;;7.73;6.90;;;27.60;99.90;;;;;;5022763;28;20450;-77
2023/08/15 08:40:30;;;;;;;7.40;6.70;;;27.70;99.90;;;;;;5022385;28;20530;-78
2023/08/15 08:43:34;;;;;;;7.53;6.93;;;27.80;99.90;;;;;;5022079;28;20486;-77
2023/08/15 08:49:25;;;;;;;8.10;6.73;;;28.60;99.90;;;;;;5009032;28;20522;-78
2023/08/15 08:52:12;;;;;;;7.43;6.83;;;28.70;99.90;;;;;;5020785;28;20503;-78
2023/08/15 08:54:48;;;;;;;8.00;7.33;;;29.00;99.90;;;;;;5017836;28;20520;-78
2023/08/15 08:57:30;;;;;;;7.50;6.80;;;29.20;99.90;;;;;;5022115;28;20462;-77
2023/08/15 09:00:13;;;;;;;7.70;7.10;;;29.10;99.90;;;;;;5032590;28;20439;-79
2023/08/15 09:03:12;;;;;;;8.60;7.47;;;28.90;99.90;;;;;;5026230;28;20451;-80
2023/08/15 09:05:57;;;;;;;8.73;7.93;;;28.80;99.90;;;;;;5014835;28;20471;-77
2023/08/15 09:08:48;;;;;;;9.03;8.37;;;28.70;99.90;;;;;;5015567;28;20505;-77
2023/08/15 09:14:11;;;;;;;8.63;7.87;;;28.90;99.90;;;;;;4987491;28;20567;-78
2023/08/15 09:16:58;;;;;;;13.27;7.60;;;29.00;99.90;;;;;;5029473;28;20477;-78
2023/08/15 09:19:58;;;;;;;9.40;8.10;;;29.10;99.90;;;;;;5022780;28;20443;-78
2023/08/15 09:23:05;;;;;;;8.77;8.00;;;29.30;99.90;;;;;;5006230;28;20448;-77
2023/08/15 09:29:35;;;;;;;11.80;8.20;;;29.90;99.90;;;;;;5000392;28;20482;-78
2023/08/15 09:32:51;;;;;;;9.40;8.50;;;29.90;99.90;;;;;;5023563;28;20509;-78
2023/08/15 09:35:33;;;;;;;10.50;9.27;;;30.10;99.90;;;;;;5004147;28;20475;-79
2023/08/15 09:38:07;;;;;;;8.30;5.03;;;29.40;99.90;;;;;;5010543;28;20912;-77
2023/08/15 09:40:49;;;;;;;5.33;4.00;;;29.30;99.90;;;;;;5018717;28;20550;-77
2023/08/15 09:43:26;;;;;;;4.50;3.60;;;29.40;99.90;;;;;;5017530;28;20836;-78
2023/08/15 09:46:07;;;;;;;7.03;3.67;;;29.10;99.90;;;;;;5018577;28;20498;-77
2023/08/15 09:48:37;;;;;;;7.50;3.33;;;29.10;99.90;;;;;;5021854;28;20479;-78
2023/08/15 09:51:11;;;;;;;4.30;3.30;;;29.10;99.90;;;;;;5019830;28;20443;-78
2023/08/15 09:53:50;;;;;;;5.00;3.20;;;29.30;99.90;;;;;;5016903;28;20439;-78
2023/08/15 09:56:20;;;;;;;3.57;2.57;;;29.40;99.90;;;;;;5019154;28;20494;-78
2023/08/15 09:58:51;;;;;;;4.83;2.87;;;29.50;99.90;;;;;;5022784;28;20483;-77
2023/08/15 10:01:24;;;;;;;4.80;3.37;;;29.40;99.90;;;;;;5023529;28;20455;-78
2023/08/15 10:03:53;;;;;;;4.63;3.83;;;29.50;99.90;;;;;;5021356;28;20456;-77
2023/08/15 10:06:27;;;;;;;5.23;3.23;;;29.70;99.90;;;;;;5017955;28;20467;-78
2023/08/15 10:09:00;;;;;;;4.17;3.77;;;29.60;99.90;;;;;;5019258;28;20475;-79
2023/08/15 10:11:35;;;;;;;6.70;3.30;;;29.40;99.90;;;;;;5020082;28;20459;-78
2023/08/15 10:14:09;;;;;;;3.70;3.40;;;29.40;99.90;;;;;;5018219;28;20459;-81
2023/08/15 10:16:40;;;;;;;4.57;3.47;;;29.60;99.90;;;;;;5015145;28;20565;-78
2023/08/15 10:19:16;;;;;;;5.50;2.80;;;29.90;99.90;;;;;;5015115;28;20424;-77
2023/08/15 10:21:50;;;;;;;4.80;3.20;;;30.10;99.90;;;;;;5017280;28;20543;-77
2023/08/15 10:24:18;;;;;;;5.00;3.00;;;30.10;99.90;;;;;;5016373;28;20489;-77
2023/08/15 10:26:47;;;;;;;5.30;3.63;;;30.00;99.90;;;;;;5017129;28;20534;-77
2023/08/15 10:29:30;;;;;;;4.60;3.70;;;29.60;99.90;;;;;;5015305;28;20604;-79
2023/08/15 10:32:03;;;;;;;6.60;3.53;;;29.50;99.90;;;;;;5018277;28;20686;-78
2023/08/15 10:34:39;;;;;;;4.27;3.87;;;29.50;99.90;;;;;;5015432;28;20513;-77
2023/08/15 10:37:32;;;;;;;8.77;3.60;;;29.60;99.90;;;;;;5016437;28;20649;-78
2023/08/15 10:40:20;;;;;;;4.27;3.60;;;29.70;99.90;;;;;;5015353;28;20993;-78
2023/08/15 10:43:07;;;;;;;4.57;3.30;;;29.80;99.90;;;;;;5014743;28;20482;-80
2023/08/15 10:45:52;;;;;;;4.00;3.60;;;29.80;99.90;;;;;;5015128;28;20990;-78
2023/08/15 10:48:37;;;;;;;4.10;3.20;;;29.80;99.90;;;;;;5015702;28;20537;-79
2023/08/15 10:51:06;;;;;;;3.40;3.10;;;29.80;99.90;;;;;;5014600;28;21018;-79
2023/08/15 10:53:44;;;;;;;3.23;3.03;;;30.00;99.90;;;;;;5014774;28;20450;-79
2023/08/15 10:56:17;;;;;;;3.67;3.43;;;30.20;99.90;;;;;;5015647;28;20467;-80
2023/08/15 10:58:47;;;;;;;2.80;2.60;;;30.60;99.90;;;;;;5015765;28;20444;-78
2023/08/15 11:01:27;;;;;;;3.80;3.20;;;30.70;99.90;;;;;;5013643;28;20439;-78
2023/08/15 11:04:01;;;;;;;3.10;2.27;;;31.00;99.90;;;;;;5014958;28;21001;-78
2023/08/15 11:06:30;;;;;;;4.83;2.80;;;31.00;99.90;;;;;;5014697;28;20466;-77
2023/08/15 11:08:59;;;;;;;3.50;2.50;;;30.70;99.90;;;;;;5014549;28;20502;-78
2023/08/15 11:11:34;;;;;;;3.63;2.50;;;30.50;99.90;;;;;;5015723;28;20471;-78
2023/08/15 11:14:02;;;;;;;3.07;2.77;;;30.60;99.90;;;;;;5017092;28;20494;-79
2023/08/15 11:16:32;;;;;;;3.60;3.07;;;30.40;99.90;;;;;;5014417;28;20483;-78
2023/08/15 11:19:02;;;;;;;3.03;2.70;;;30.10;99.90;;;;;;5016097;28;20467;-78
2023/08/15 11:21:32;;;;;;;4.10;2.87;;;29.90;99.90;;;;;;5016807;28;20455;-77
2023/08/15 11:24:01;;;;;;;3.00;2.67;;;29.70;99.90;;;;;;5000023;28;20507;-77
2023/08/15 11:26:39;;;;;;;3.33;2.70;;;29.90;99.90;;;;;;4999561;28;20472;-79
2023/08/15 11:29:10;;;;;;;2.80;2.53;;;30.30;99.90;;;;;;4998601;28;20487;-79
2023/08/15 11:31:45;;;;;;;3.03;2.77;;;30.40;99.90;;;;;;4998481;28;20556;-79
2023/08/15 11:34:21;;;;;;;5.10;3.00;;;30.70;99.90;;;;;;4997822;28;20474;-79
2023/08/15 11:36:53;;;;;;;3.50;3.20;;;31.00;99.90;;;;;;4995430;28;20480;-78
2023/08/15 11:39:22;;;;;;;8.13;3.93;;;31.30;99.90;;;;;;4998621;28;20479;-78
2023/08/15 11:41:58;;;;;;;4.90;4.03;;;31.70;99.90;;;;;;4996076;28;20483;-79
2023/08/15 11:44:28;;;;;;;4.17;3.77;;;31.60;99.90;;;;;;4998272;28;20456;-79
2023/08/15 11:47:00;;;;;;;4.97;3.87;;;31.80;99.90;;;;;;4997263;28;21003;-79
2023/08/15 11:49:28;;;;;;;3.60;3.30;;;31.80;99.90;;;;;;4999331;28;20484;-79
2023/08/15 11:52:09;;;;;;;5.30;4.10;;;31.70;99.90;;;;;;4996651;28;20475;-79
2023/08/15 11:54:55;;;;;;;4.47;4.07;;;31.70;99.90;;;;;;4998004;28;20448;-79
2023/08/15 11:57:41;;;;;;;5.40;4.23;;;31.50;99.90;;;;;;4996842;28;20468;-77
2023/08/15 12:00:11;;;;;;;5.00;4.10;;;31.90;99.90;;;;;;4999354;28;20475;-79
2023/08/15 12:02:45;;;;;;;5.77;3.93;;;32.40;99.90;;;;;;4997637;28;20487;-79
2023/08/15 12:05:15;;;;;;;4.73;4.33;;;32.10;99.90;;;;;;4998977;28;20478;-79
2023/08/15 12:07:48;;;;;;;5.23;4.67;;;32.60;99.90;;;;;;4998325;28;20472;-78
2023/08/15 12:10:16;;;;;;;5.50;4.27;;;32.80;99.90;;;;;;4996227;28;20538;-79
2023/08/15 12:12:46;;;;;;;4.90;4.43;;;32.30;99.90;;;;;;4996059;28;20463;-77
2023/08/15 12:15:20;;;;;;;4.93;4.53;;;32.60;99.90;;;;;;5003015;28;20485;-83
2023/08/15 12:17:50;;;;;;;5.87;5.27;;;33.00;99.90;;;;;;4996465;28;20455;-80
2023/08/15 12:20:23;;;;;;;5.90;5.40;;;33.10;99.90;;;;;;4997893;28;20455;-79
2023/08/15 12:22:52;;;;;;;6.50;5.93;;;32.80;99.90;;;;;;5014249;28;20452;-78
2023/08/15 12:25:28;;;;;;;8.37;5.47;;;32.00;99.90;;;;;;5026344;28;20469;-80
2023/08/15 12:28:04;;;;;;;6.17;5.67;;;31.70;99.90;;;;;;5029253;28;20453;-79
2023/08/15 12:30:37;;;;;;;5.67;5.27;;;31.50;99.90;;;;;;5030106;28;20497;-78
2023/08/15 12:33:09;;;;;;;7.80;6.20;;;31.90;99.90;;;;;;5031029;28;20448;-79
2023/08/15 12:35:41;;;;;;;6.87;5.43;;;32.80;99.90;;;;;;5033622;28;20555;-76
2023/08/15 12:38:10;;;;;;;6.57;5.97;;;31.80;99.90;;;;;;5034015;28;20463;-78
2023/08/15 12:40:40;;;;;;;5.90;5.40;;;32.20;99.90;;;;;;5035825;28;20446;-79
2023/08/15 12:43:13;;;;;;;6.53;4.43;;;33.10;99.90;;;;;;5030884;28;20474;-79
2023/08/15 12:45:47;;;;;;;4.87;4.47;;;33.70;99.90;;;;;;5034500;28;20474;-77
2023/08/15 12:48:21;;;;;;;4.70;4.30;;;34.00;99.90;;;;;;5035102;28;20541;-78
2023/08/15 12:50:51;;;;;;;5.80;5.30;;;34.10;99.90;;;;;;5036671;28;20471;-78
2023/08/15 12:53:23;;;;;;;5.20;4.70;;;33.00;99.90;;;;;;5035540;28;20466;-79
2023/08/15 12:55:54;;;;;;;5.87;5.30;;;32.70;99.90;;;;;;5035191;28;20498;-78
2023/08/15 12:58:22;;;;;;;5.90;4.47;;;33.10;99.90;;;;;;5026556;28;20450;-78
2023/08/15 13:00:50;;;;;;;4.50;4.10;;;33.20;99.90;;;;;;5023658;28;20443;-77
2023/08/15 13:03:23;;;;;;;5.90;4.20;;;32.70;99.90;;;;;;5019740;28;20463;-77
2023/08/15 13:05:57;;;;;;;4.70;4.20;;;32.60;99.90;;;;;;5018695;28;21033;-80
2023/08/15 13:08:28;;;;;;;4.53;4.03;;;33.20;99.90;;;;;;5018185;28;20476;-81
2023/08/15 13:11:26;;;;;;;5.30;3.97;;;32.90;99.90;;;;;;5025176;28;20506;-81
2023/08/15 13:14:04;;;;;;;4.47;3.53;;;33.20;99.90;;;;;;5021182;28;20703;-78
2023/08/15 13:16:44;;;;;;;4.47;4.00;;;33.50;99.90;;;;;;5021426;28;20493;-79
2023/08/15 13:19:22;;;;;;;5.37;4.43;;;33.20;99.90;;;;;;5025178;28;20855;-80
2023/08/15 13:21:50;;;;;;;5.13;4.10;;;33.40;99.90;;;;;;5026226;28;20470;-80
2023/08/15 13:24:18;;;;;;;4.40;4.00;;;33.10;99.90;;;;;;5024462;28;20809;-78
2023/08/15 13:26:59;;;;;;;4.47;4.10;;;33.40;99.90;;;;;;5023923;28;21009;-81
2023/08/15 13:29:33;;;;;;;4.00;3.70;;;33.70;99.90;;;;;;5022705;28;20479;-80
2023/08/15 13:32:00;;;;;;;3.90;3.60;;;32.60;99.90;;;;;;5020377;28;20466;-78
2023/08/15 13:34:35;;;;;;;7.67;3.67;;;33.00;99.90;;;;;;5020981;28;21025;-80
2023/08/15 13:37:09;;;;;;;4.03;3.73;;;33.40;99.90;;;;;;5020293;28;20566;-79
2023/08/15 13:39:40;;;;;;;4.00;3.40;;;32.50;99.90;;;;;;5020819;28;20455;-81
2023/08/15 13:42:09;;;;;;;4.77;4.00;;;33.00;99.90;;;;;;5021934;28;20459;-79
2023/08/15 13:44:39;;;;;;;5.53;4.47;;;32.50;99.90;;;;;;5020909;28;20546;-81
2023/08/15 13:47:06;;;;;;;5.23;4.73;;;32.80;99.90;;;;;;5021556;28;20472;-79
2023/08/15 13:49:35;;;;;;;5.43;4.90;;;32.80;99.90;;;;;;5019543;28;20497;-80
2023/08/15 13:52:03;;;;;;;5.03;4.53;;;32.00;99.90;;;;;;5021090;28;20455;-77
2023/08/15 13:54:32;;;;;;;5.30;4.80;;;32.10;99.90;;;;;;5023791;28;20444;-79
2023/08/15 13:57:00;;;;;;;5.27;4.87;;;32.40;99.90;;;;;;5021743;28;20451;-79
2023/08/15 13:59:31;;;;;;;5.30;4.80;;;32.70;99.90;;;;;;5022310;28;20463;-78
2023/08/15 14:02:02;;;;;;;5.30;4.80;;;32.80;99.90;;;;;;5022624;28;20871;-79
2023/08/15 14:04:31;;;;;;;8.20;4.50;;;31.90;99.90;;;;;;5020803;28;20472;-79
2023/08/15 14:07:03;;;;;;;4.77;4.33;;;32.00;99.90;;;;;;5018724;28;20463;-80
2023/08/15 14:09:32;;;;;;;6.03;4.60;;;32.30;99.90;;;;;;5016178;28;20506;-79
2023/08/15 14:11:59;;;;;;;5.07;4.60;;;32.00;99.90;;;;;;5015517;28;20491;-78
2023/08/15 14:14:27;;;;;;;7.80;4.97;;;31.70;99.90;;;;;;5018601;28;20823;-79
2023/08/15 14:16:56;;;;;;;5.10;4.70;;;31.30;99.90;;;;;;5027724;28;20986;-78
2023/08/15 14:19:31;;;;;;;5.50;4.80;;;31.30;99.90;;;;;;5029621;28;20455;-77
2023/08/15 14:22:01;;;;;;;5.60;5.10;;;31.50;99.90;;;;;;5021434;28;20454;-77
2023/08/15 14:24:32;;;;;;;5.40;5.00;;;31.60;99.90;;;;;;5000236;28;20429;-79
2023/08/15 14:27:03;;;;;;;7.77;4.77;;;31.60;99.90;;;;;;4997563;28;20480;-80
2023/08/15 14:29:31;;;;;;;6.23;5.73;;;31.80;99.90;;;;;;4997547;28;20560;-79
2023/08/15 14:31:59;;;;;;;5.40;5.00;;;31.40;99.90;;;;;;5000166;28;20482;-80
2023/08/15 14:34:27;;;;;;;5.27;4.80;;;31.50;99.90;;;;;;4997628;28;20898;-79
2023/08/15 14:36:54;;;;;;;6.40;5.50;;;31.70;99.90;;;;;;4999156;28;20474;-80
2023/08/15 14:39:23;;;;;;;5.20;4.70;;;31.90;99.90;;;;;;5002874;28;20506;-79
2023/08/15 14:41:51;;;;;;;6.63;4.87;;;32.10;99.90;;;;;;4999828;28;21032;-78
2023/08/15 14:44:18;;;;;;;6.70;5.63;;;31.90;99.90;;;;;;4999873;28;20517;-78
2023/08/15 14:46:46;;;;;;;6.20;5.47;;;31.70;99.90;;;;;;5000926;28;20540;-80
2023/08/15 14:49:13;;;;;;;5.53;5.00;;;31.60;99.90;;;;;;4997648;28;20507;-80
2023/08/15 14:51:41;;;;;;;7.67;5.10;;;31.40;99.90;;;;;;4995969;28;20457;-79
2023/08/15 14:54:09;;;;;;;5.50;5.10;;;31.50;99.90;;;;;;4997108;28;20577;-80
2023/08/15 14:56:40;;;;;;;5.53;5.13;;;31.90;99.90;;;;;;4997534;28;20479;-78
2023/08/15 14:59:09;;;;;;;6.23;5.53;;;32.40;99.90;;;;;;4998182;28;20842;-79
2023/08/15 15:01:37;;;;;;;5.37;4.90;;;31.20;99.90;;;;;;4998413;28;20536;-78
2023/08/15 15:04:06;;;;;;;5.70;5.03;;;30.80;99.90;;;;;;4998182;28;20455;-80
2023/08/15 15:06:34;;;;;;;5.37;4.87;;;30.60;99.90;;;;;;4996577;28;20474;-80
2023/08/15 15:09:10;;;;;;;4.80;4.50;;;31.30;99.90;;;;;;4996009;28;20487;-79
2023/08/15 15:11:39;;;;;;;6.90;6.10;;;31.70;99.90;;;;;;4995919;28;20467;-78
2023/08/15 15:14:06;;;;;;;5.50;5.10;;;31.50;99.90;;;;;;4996164;28;20444;-80
2023/08/15 15:16:37;;;;;;;6.07;5.03;;;31.10;99.90;;;;;;4996406;28;20484;-78
2023/08/15 15:19:12;;;;;;;5.83;5.27;;;30.40;99.90;;;;;;4996876;28;20464;-79
2023/08/15 15:21:41;;;;;;;4.53;4.23;;;30.90;99.90;;;;;;4996317;28;20526;-80
2023/08/15 15:24:10;;;;;;;5.50;5.00;;;30.50;99.90;;;;;;5015381;28;20466;-78
2023/08/15 15:26:39;;;;;;;5.37;4.87;;;30.90;99.90;;;;;;5025947;28;20472;-77
2023/08/15 15:29:06;;;;;;;4.63;4.33;;;31.40;99.90;;;;;;5021640;28;20527;-79
2023/08/15 15:31:34;;;;;;;5.60;4.83;;;31.30;99.90;;;;;;5016198;28;20447;-79
2023/08/15 15:34:03;;;;;;;5.33;4.97;;;31.70;99.90;;;;;;5017760;28;20885;-79
2023/08/15 15:36:31;;;;;;;5.37;4.87;;;31.90;99.90;;;;;;5017989;28;20459;-80
2023/08/15 15:38:59;;;;;;;6.93;5.10;;;31.10;99.90;;;;;;5017534;28;20459;-78
2023/08/15 15:41:27;;;;;;;5.43;4.90;;;31.00;99.90;;;;;;5016465;28;20452;-80
2023/08/15 15:43:57;;;;;;;7.20;4.70;;;30.70;99.90;;;;;;5014912;28;20455;-79
2023/08/15 15:46:24;;;;;;;6.93;4.60;;;30.40;99.90;;;;;;5014502;28;20521;-80
2023/08/15 15:48:52;;;;;;;4.67;4.30;;;30.10;99.90;;;;;;5014448;28;20448;-77
2023/08/15 15:51:20;;;;;;;5.10;4.60;;;30.40;99.90;;;;;;5015437;28;20480;-81
2023/08/15 15:53:50;;;;;;;5.10;4.73;;;30.60;99.90;;;;;;5015217;28;20878;-77
2023/08/15 15:56:20;;;;;;;6.20;4.00;;;30.30;99.90;;;;;;5015701;28;20510;-78
2023/08/15 15:58:47;;;;;;;4.23;3.93;;;30.20;99.90;;;;;;5016391;28;20431;-78
2023/08/15 16:01:19;;;;;;;4.33;3.93;;;30.20;99.90;;;;;;5018042;28;20456;-80
2023/08/15 16:03:52;;;;;;;5.23;4.70;;;30.20;99.90;;;;;;5018195;28;20448;-80
2023/08/15 16:06:20;;;;;;;5.13;4.00;;;30.40;99.90;;;;;;5014395;28;20985;-78